sensor_id;sensor_type;location;lat;lon;timestamp;temperature;humidity
28189;DHT22;15471;51.166;4.470;2023-04-24T00:17:58;9.80;99.90
28189;DHT22;15471;51.166;4.470;2023-04-24T00:20:34;9.70;99.90
28189;DHT22;15471;51.166;4.470;2023-04-24T00:33:52;9.80;99.90
28189;DHT22;15471;51.166;4.470;2023-04-24T00:58:52;9.70;99.90
28189;DHT22;15471;51.166;4.470;2023-04-24T01:13:40;9.70;99.90
28189;DHT22;15471;51.166;4.470;2023-04-24T01:19:40;9.70;99.90
28189;DHT22;15471;51.166;4.470;2023-04-24T01:29:11;9.60;99.90
28189;DHT22;15471;51.166;4.470;2023-04-24T01:31:48;9.50;99.90
28189;DHT22;15471;51.166;4.470;2023-04-24T01:34:33;9.60;99.90
28189;DHT22;15471;51.166;4.470;2023-04-24T01:40:15;9.60;99.90
28189;DHT22;15471;51.166;4.470;2023-04-24T01:42:47;9.70;99.90
28189;DHT22;15471;51.166;4.470;2023-04-24T01:45:23;9.70;99.90
28189;DHT22;15471;51.166;4.470;2023-04-24T01:50:24;9.70;99.90
28189;DHT22;15471;51.166;4.470;2023-04-24T01:55:39;9.70;99.90
28189;DHT22;15471;51.166;4.470;2023-04-24T02:00:44;9.80;99.90
28189;DHT22;15471;51.166;4.470;2023-04-24T02:06:15;9.80;99.90
28189;DHT22;15471;51.166;4.470;2023-04-24T02:09:07;9.80;99.90
28189;DHT22;15471;51.166;4.470;2023-04-24T02:11:39;9.70;99.90
28189;DHT22;15471;51.166;4.470;2023-04-24T02:14:13;9.80;99.90
28189;DHT22;15471;51.166;4.470;2023-04-24T02:16:45;9.70;99.90
28189;DHT22;15471;51.166;4.470;2023-04-24T02:24:39;9.70;99.90
28189;DHT22;15471;51.166;4.470;2023-04-24T02:30:15;9.80;99.90
28189;DHT22;15471;51.166;4.470;2023-04-24T02:38:16;9.60;99.90
28189;DHT22;15471;51.166;4.470;2023-04-24T02:40:48;9.50;99.90
28189;DHT22;15471;51.166;4.470;2023-04-24T02:48:48;9.40;99.90
28189;DHT22;15471;51.166;4.470;2023-04-24T03:02:00;9.10;99.90
28189;DHT22;15471;51.166;4.470;2023-04-24T03:04:29;9.10;99.90
28189;DHT22;15471;51.166;4.470;2023-04-24T03:06:58;9.10;99.90
28189;DHT22;15471;51.166;4.470;2023-04-24T03:09:24;9.00;99.90
28189;DHT22;15471;51.166;4.470;2023-04-24T03:11:50;9.00;99.90
28189;DHT22;15471;51.166;4.470;2023-04-24T03:14:17;9.00;99.90
28189;DHT22;15471;51.166;4.470;2023-04-24T03:16:43;8.90;99.90
28189;DHT22;15471;51.166;4.470;2023-04-24T03:19:09;8.90;99.90
28189;DHT22;15471;51.166;4.470;2023-04-24T03:21:43;8.90;99.90
28189;DHT22;15471;51.166;4.470;2023-04-24T03:24:09;8.90;99.90
28189;DHT22;15471;51.166;4.470;2023-04-24T03:26:36;9.00;99.90
28189;DHT22;15471;51.166;4.470;2023-04-24T03:29:27;8.90;99.90
28189;DHT22;15471;51.166;4.470;2023-04-24T03:31:53;8.90;99.90
28189;DHT22;15471;51.166;4.470;2023-04-24T03:34:19;8.80;99.90
28189;DHT22;15471;51.166;4.470;2023-04-24T03:36:45;8.80;99.90
28189;DHT22;15471;51.166;4.470;2023-04-24T03:39:13;8.90;99.90
28189;DHT22;15471;51.166;4.470;2023-04-24T03:41:46;8.80;99.90
28189;DHT22;15471;51.166;4.470;2023-04-24T03:44:17;8.80;99.90
28189;DHT22;15471;51.166;4.470;2023-04-24T03:46:44;8.80;99.90
28189;DHT22;15471;51.166;4.470;2023-04-24T03:49:10;8.80;99.90
28189;DHT22;15471;51.166;4.470;2023-04-24T03:51:40;8.80;99.90
28189;DHT22;15471;51.166;4.470;2023-04-24T03:54:16;8.80;99.90
28189;DHT22;15471;51.166;4.470;2023-04-24T03:56:44;8.70;99.90
28189;DHT22;15471;51.166;4.470;2023-04-24T03:59:10;8.60;99.90
28189;DHT22;15471;51.166;4.470;2023-04-24T04:01:38;8.60;99.90
28189;DHT22;15471;51.166;4.470;2023-04-24T04:04:11;8.50;99.90
28189;DHT22;15471;51.166;4.470;2023-04-24T04:06:38;8.50;99.90
28189;DHT22;15471;51.166;4.470;2023-04-24T04:09:04;8.60;99.90
28189;DHT22;15471;51.166;4.470;2023-04-24T04:11:31;8.50;99.90
28189;DHT22;15471;51.166;4.470;2023-04-24T04:13:56;8.50;99.90
28189;DHT22;15471;51.166;4.470;2023-04-24T04:16:24;8.50;99.90
28189;DHT22;15471;51.166;4.470;2023-04-24T04:18:55;8.50;99.90
28189;DHT22;15471;51.166;4.470;2023-04-24T04:21:21;8.50;99.90
28189;DHT22;15471;51.166;4.470;2023-04-24T04:23:50;8.40;99.90
28189;DHT22;15471;51.166;4.470;2023-04-24T04:26:26;8.40;99.90
28189;DHT22;15471;51.166;4.470;2023-04-24T04:29:12;8.40;99.90
28189;DHT22;15471;51.166;4.470;2023-04-24T04:31:42;8.40;99.90
28189;DHT22;15471;51.166;4.470;2023-04-24T04:34:11;8.30;99.90
28189;DHT22;15471;51.166;4.470;2023-04-24T04:36:40;8.30;99.90
28189;DHT22;15471;51.166;4.470;2023-04-24T04:39:29;8.40;99.90
28189;DHT22;15471;51.166;4.470;2023-04-24T04:42:01;8.30;99.90
28189;DHT22;15471;51.166;4.470;2023-04-24T04:44:35;8.30;99.90
28189;DHT22;15471;51.166;4.470;2023-04-24T04:47:02;8.30;99.90
28189;DHT22;15471;51.166;4.470;2023-04-24T04:49:32;8.40;99.90
28189;DHT22;15471;51.166;4.470;2023-04-24T04:51:59;8.30;99.90
28189;DHT22;15471;51.166;4.470;2023-04-24T04:54:27;8.20;99.90
28189;DHT22;15471;51.166;4.470;2023-04-24T04:56:54;8.20;99.90
28189;DHT22;15471;51.166;4.470;2023-04-24T04:59:21;8.20;99.90
28189;DHT22;15471;51.166;4.470;2023-04-24T05:01:50;8.10;99.90
28189;DHT22;15471;51.166;4.470;2023-04-24T05:04:17;8.00;99.90
28189;DHT22;15471;51.166;4.470;2023-04-24T05:06:43;8.00;99.90
28189;DHT22;15471;51.166;4.470;2023-04-24T05:09:09;8.00;99.90
28189;DHT22;15471;51.166;4.470;2023-04-24T05:11:45;8.00;99.90
28189;DHT22;15471;51.166;4.470;2023-04-24T05:14:11;7.90;99.90
28189;DHT22;15471;51.166;4.470;2023-04-24T05:16:39;7.80;99.90
28189;DHT22;15471;51.166;4.470;2023-04-24T05:19:07;7.90;99.90
28189;DHT22;15471;51.166;4.470;2023-04-24T05:21:38;7.80;99.90
28189;DHT22;15471;51.166;4.470;2023-04-24T05:24:05;7.80;99.90
28189;DHT22;15471;51.166;4.470;2023-04-24T05:26:47;7.70;99.90
28189;DHT22;15471;51.166;4.470;2023-04-24T05:29:15;7.80;99.90
28189;DHT22;15471;51.166;4.470;2023-04-24T05:31:42;7.80;99.90
28189;DHT22;15471;51.166;4.470;2023-04-24T05:34:08;7.70;99.90
28189;DHT22;15471;51.166;4.470;2023-04-24T05:36:39;7.70;99.90
28189;DHT22;15471;51.166;4.470;2023-04-24T05:39:05;7.70;99.90
28189;DHT22;15471;51.166;4.470;2023-04-24T05:41:32;7.70;99.90
28189;DHT22;15471;51.166;4.470;2023-04-24T05:43:58;7.60;99.90
28189;DHT22;15471;51.166;4.470;2023-04-24T05:46:24;7.60;99.90
28189;DHT22;15471;51.166;4.470;2023-04-24T05:48:50;7.50;99.90
28189;DHT22;15471;51.166;4.470;2023-04-24T05:51:16;7.50;99.90
28189;DHT22;15471;51.166;4.470;2023-04-24T05:53:42;7.50;99.90
28189;DHT22;15471;51.166;4.470;2023-04-24T05:56:09;7.50;99.90
28189;DHT22;15471;51.166;4.470;2023-04-24T05:58:36;7.50;99.90
28189;DHT22;15471;51.166;4.470;2023-04-24T06:01:03;7.50;99.90
28189;DHT22;15471;51.166;4.470;2023-04-24T06:03:30;7.60;99.90
28189;DHT22;15471;51.166;4.470;2023-04-24T06:05:56;7.70;99.90
28189;DHT22;15471;51.166;4.470;2023-04-24T06:08:23;7.70;99.90
28189;DHT22;15471;51.166;4.470;2023-04-24T06:10:49;7.80;99.90
28189;DHT22;15471;51.166;4.470;2023-04-24T06:13:18;7.90;99.90
28189;DHT22;15471;51.166;4.470;2023-04-24T06:16:00;7.90;99.90
28189;DHT22;15471;51.166;4.470;2023-04-24T06:18:33;8.00;99.90
28189;DHT22;15471;51.166;4.470;2023-04-24T06:21:00;8.10;99.90
28189;DHT22;15471;51.166;4.470;2023-04-24T06:23:26;8.10;99.90
28189;DHT22;15471;51.166;4.470;2023-04-24T06:25:53;8.10;99.90
28189;DHT22;15471;51.166;4.470;2023-04-24T06:28:19;8.20;99.90
28189;DHT22;15471;51.166;4.470;2023-04-24T06:30:45;8.40;99.90
28189;DHT22;15471;51.166;4.470;2023-04-24T06:33:11;8.40;99.90
28189;DHT22;15471;51.166;4.470;2023-04-24T06:35:37;8.40;99.90
28189;DHT22;15471;51.166;4.470;2023-04-24T06:38:06;8.50;99.90
28189;DHT22;15471;51.166;4.470;2023-04-24T06:40:32;8.40;99.90
28189;DHT22;15471;51.166;4.470;2023-04-24T06:42:59;8.50;99.90
28189;DHT22;15471;51.166;4.470;2023-04-24T06:45:25;8.60;99.90
28189;DHT22;15471;51.166;4.470;2023-04-24T06:47:51;8.50;99.90
28189;DHT22;15471;51.166;4.470;2023-04-24T06:50:17;8.50;99.90
28189;DHT22;15471;51.166;4.470;2023-04-24T06:52:43;8.40;99.90
28189;DHT22;15471;51.166;4.470;2023-04-24T06:55:12;8.50;99.90
28189;DHT22;15471;51.166;4.470;2023-04-24T06:58:12;8.50;99.90
28189;DHT22;15471;51.166;4.470;2023-04-24T07:00:48;8.50;99.90
28189;DHT22;15471;51.166;4.470;2023-04-24T07:03:14;8.50;99.90
28189;DHT22;15471;51.166;4.470;2023-04-24T07:05:40;8.50;99.90
28189;DHT22;15471;51.166;4.470;2023-04-24T07:08:07;8.40;99.90
28189;DHT22;15471;51.166;4.470;2023-04-24T07:10:37;8.40;99.90
28189;DHT22;15471;51.166;4.470;2023-04-24T07:13:03;8.30;99.90
28189;DHT22;15471;51.166;4.470;2023-04-24T07:15:29;8.30;99.90
28189;DHT22;15471;51.166;4.470;2023-04-24T07:17:55;8.30;99.90
28189;DHT22;15471;51.166;4.470;2023-04-24T07:20:21;8.30;99.90
28189;DHT22;15471;51.166;4.470;2023-04-24T07:22:47;8.30;99.90
28189;DHT22;15471;51.166;4.470;2023-04-24T07:25:14;8.30;99.90
28189;DHT22;15471;51.166;4.470;2023-04-24T07:28:07;8.30;99.90
28189;DHT22;15471;51.166;4.470;2023-04-24T07:31:11;8.40;99.90
28189;DHT22;15471;51.166;4.470;2023-04-24T07:33:37;8.50;99.90
28189;DHT22;15471;51.166;4.470;2023-04-24T07:36:03;8.50;99.90
28189;DHT22;15471;51.166;4.470;2023-04-24T07:38:30;8.60;99.90
28189;DHT22;15471;51.166;4.470;2023-04-24T07:40:57;8.80;99.90
28189;DHT22;15471;51.166;4.470;2023-04-24T07:43:23;8.60;99.90
28189;DHT22;15471;51.166;4.470;2023-04-24T07:45:52;8.40;99.90
28189;DHT22;15471;51.166;4.470;2023-04-24T07:48:19;8.40;99.90
28189;DHT22;15471;51.166;4.470;2023-04-24T07:50:47;8.40;99.90
28189;DHT22;15471;51.166;4.470;2023-04-24T07:53:13;8.40;99.90
28189;DHT22;15471;51.166;4.470;2023-04-24T07:59:40;8.60;99.90
28189;DHT22;15471;51.166;4.470;2023-04-24T08:02:09;8.70;99.90
28189;DHT22;15471;51.166;4.470;2023-04-24T08:04:35;8.90;99.90
28189;DHT22;15471;51.166;4.470;2023-04-24T08:07:02;9.00;99.90
28189;DHT22;15471;51.166;4.470;2023-04-24T08:09:29;9.20;99.90
28189;DHT22;15471;51.166;4.470;2023-04-24T08:11:55;9.30;99.90
28189;DHT22;15471;51.166;4.470;2023-04-24T08:14:23;9.20;99.90
28189;DHT22;15471;51.166;4.470;2023-04-24T08:16:49;9.10;99.90
28189;DHT22;15471;51.166;4.470;2023-04-24T08:19:17;8.90;99.90
28189;DHT22;15471;51.166;4.470;2023-04-24T08:21:43;8.70;99.90
28189;DHT22;15471;51.166;4.470;2023-04-24T08:24:19;8.90;99.90
28189;DHT22;15471;51.166;4.470;2023-04-24T08:26:58;8.90;99.90
28189;DHT22;15471;51.166;4.470;2023-04-24T08:29:25;8.90;99.90
28189;DHT22;15471;51.166;4.470;2023-04-24T08:31:52;8.80;99.90
28189;DHT22;15471;51.166;4.470;2023-04-24T08:34:21;9.00;99.90
28189;DHT22;15471;51.166;4.470;2023-04-24T08:36:49;9.00;99.90
28189;DHT22;15471;51.166;4.470;2023-04-24T08:39:15;9.00;99.90
28189;DHT22;15471;51.166;4.470;2023-04-24T08:41:43;9.00;99.90
28189;DHT22;15471;51.166;4.470;2023-04-24T08:44:12;9.10;99.90
28189;DHT22;15471;51.166;4.470;2023-04-24T09:00:04;10.30;99.90
28189;DHT22;15471;51.166;4.470;2023-04-24T09:27:47;9.60;99.90
28189;DHT22;15471;51.166;4.470;2023-04-24T09:30:25;9.90;99.90
28189;DHT22;15471;51.166;4.470;2023-04-24T09:33:13;9.90;99.90
28189;DHT22;15471;51.166;4.470;2023-04-24T09:35:51;10.00;99.90
28189;DHT22;15471;51.166;4.470;2023-04-24T09:38:17;9.90;99.90
28189;DHT22;15471;51.166;4.470;2023-04-24T09:40:46;9.90;99.90
28189;DHT22;15471;51.166;4.470;2023-04-24T09:46:07;9.70;99.90
28189;DHT22;15471;51.166;4.470;2023-04-24T09:48:38;9.90;99.90
28189;DHT22;15471;51.166;4.470;2023-04-24T09:51:07;10.00;99.90
28189;DHT22;15471;51.166;4.470;2023-04-24T09:53:36;10.20;99.90
28189;DHT22;15471;51.166;4.470;2023-04-24T09:56:10;10.50;99.90
28189;DHT22;15471;51.166;4.470;2023-04-24T09:58:38;10.50;99.90
28189;DHT22;15471;51.166;4.470;2023-04-24T10:01:05;10.60;99.90
28189;DHT22;15471;51.166;4.470;2023-04-24T10:03:33;10.40;99.90
28189;DHT22;15471;51.166;4.470;2023-04-24T10:06:05;10.40;99.90
28189;DHT22;15471;51.166;4.470;2023-04-24T10:08:35;10.20;99.90
28189;DHT22;15471;51.166;4.470;2023-04-24T10:11:02;10.00;99.90
28189;DHT22;15471;51.166;4.470;2023-04-24T10:13:29;10.40;99.90
28189;DHT22;15471;51.166;4.470;2023-04-24T10:15:56;10.80;99.90
28189;DHT22;15471;51.166;4.470;2023-04-24T10:18:27;11.20;99.90
28189;DHT22;15471;51.166;4.470;2023-04-24T10:20:54;11.90;99.90
28189;DHT22;15471;51.166;4.470;2023-04-24T10:23:20;12.30;99.90
28189;DHT22;15471;51.166;4.470;2023-04-24T10:25:48;12.50;99.90
28189;DHT22;15471;51.166;4.470;2023-04-24T10:28:18;12.60;99.90
28189;DHT22;15471;51.166;4.470;2023-04-24T10:30:48;12.50;99.90
28189;DHT22;15471;51.166;4.470;2023-04-24T10:33:18;12.40;99.90
28189;DHT22;15471;51.166;4.470;2023-04-24T10:35:46;12.10;99.90
28189;DHT22;15471;51.166;4.470;2023-04-24T10:38:18;12.00;99.90
28189;DHT22;15471;51.166;4.470;2023-04-24T10:40:50;11.60;99.90
28189;DHT22;15471;51.166;4.470;2023-04-24T10:43:17;11.10;99.90
28189;DHT22;15471;51.166;4.470;2023-04-24T10:46:04;11.00;99.90
28189;DHT22;15471;51.166;4.470;2023-04-24T10:48:31;10.80;99.90
28189;DHT22;15471;51.166;4.470;2023-04-24T10:50:58;10.80;99.90
28189;DHT22;15471;51.166;4.470;2023-04-24T10:53:27;11.00;99.90
28189;DHT22;15471;51.166;4.470;2023-04-24T10:56:06;11.30;99.90
28189;DHT22;15471;51.166;4.470;2023-04-24T10:58:44;11.40;99.90
28189;DHT22;15471;51.166;4.470;2023-04-24T11:01:24;11.60;99.90
28189;DHT22;15471;51.166;4.470;2023-04-24T11:03:55;12.10;99.90
28189;DHT22;15471;51.166;4.470;2023-04-24T11:06:33;12.00;99.90
28189;DHT22;15471;51.166;4.470;2023-04-24T11:09:08;11.70;99.90
28189;DHT22;15471;51.166;4.470;2023-04-24T11:11:36;11.30;99.90
28189;DHT22;15471;51.166;4.470;2023-04-24T11:14:09;11.50;99.90
28189;DHT22;15471;51.166;4.470;2023-04-24T11:19:20;11.50;99.90
28189;DHT22;15471;51.166;4.470;2023-04-24T11:21:56;11.80;99.90
28189;DHT22;15471;51.166;4.470;2023-04-24T11:27:12;12.50;99.90
28189;DHT22;15471;51.166;4.470;2023-04-24T11:29:48;12.80;99.90
28189;DHT22;15471;51.166;4.470;2023-04-24T11:32:28;13.20;99.90
28189;DHT22;15471;51.166;4.470;2023-04-24T11:35:24;13.50;99.90
28189;DHT22;15471;51.166;4.470;2023-04-24T11:37:54;13.50;99.90
28189;DHT22;15471;51.166;4.470;2023-04-24T11:40:21;12.80;99.90
28189;DHT22;15471;51.166;4.470;2023-04-24T11:42:53;12.40;99.90
28189;DHT22;15471;51.166;4.470;2023-04-24T11:45:24;12.50;99.90
28189;DHT22;15471;51.166;4.470;2023-04-24T11:47:51;12.60;99.90
28189;DHT22;15471;51.166;4.470;2023-04-24T11:50:18;12.40;99.90
28189;DHT22;15471;51.166;4.470;2023-04-24T11:52:49;12.50;99.90
28189;DHT22;15471;51.166;4.470;2023-04-24T11:57:53;12.40;99.90
28189;DHT22;15471;51.166;4.470;2023-04-24T12:00:22;12.20;99.90
28189;DHT22;15471;51.166;4.470;2023-04-24T12:02:49;11.60;99.90
28189;DHT22;15471;51.166;4.470;2023-04-24T12:05:26;11.50;99.90
28189;DHT22;15471;51.166;4.470;2023-04-24T12:07:53;11.60;99.90
28189;DHT22;15471;51.166;4.470;2023-04-24T12:10:24;11.70;99.90
28189;DHT22;15471;51.166;4.470;2023-04-24T12:12:51;11.50;99.90
28189;DHT22;15471;51.166;4.470;2023-04-24T12:15:19;11.20;99.90
28189;DHT22;15471;51.166;4.470;2023-04-24T12:17:46;11.20;99.90
28189;DHT22;15471;51.166;4.470;2023-04-24T12:20:13;11.20;99.90
28189;DHT22;15471;51.166;4.470;2023-04-24T12:22:58;11.50;99.90
28189;DHT22;15471;51.166;4.470;2023-04-24T12:25:27;11.70;99.90
28189;DHT22;15471;51.166;4.470;2023-04-24T12:30:34;12.10;99.90
28189;DHT22;15471;51.166;4.470;2023-04-24T12:33:00;12.20;99.90
28189;DHT22;15471;51.166;4.470;2023-04-24T12:35:29;12.20;99.90
28189;DHT22;15471;51.166;4.470;2023-04-24T12:38:06;12.40;99.90
28189;DHT22;15471;51.166;4.470;2023-04-24T12:40:33;12.60;99.90
28189;DHT22;15471;51.166;4.470;2023-04-24T12:43:00;12.40;99.90
28189;DHT22;15471;51.166;4.470;2023-04-24T12:45:26;12.20;99.90
28189;DHT22;15471;51.166;4.470;2023-04-24T12:47:53;11.90;99.90
28189;DHT22;15471;51.166;4.470;2023-04-24T12:50:19;11.70;99.90
28189;DHT22;15471;51.166;4.470;2023-04-24T12:52:46;11.60;99.90
28189;DHT22;15471;51.166;4.470;2023-04-24T12:55:12;11.90;99.90
28189;DHT22;15471;51.166;4.470;2023-04-24T12:57:39;12.10;99.90
28189;DHT22;15471;51.166;4.470;2023-04-24T13:00:07;12.10;99.90
28189;DHT22;15471;51.166;4.470;2023-04-24T13:02:35;12.20;99.90
28189;DHT22;15471;51.166;4.470;2023-04-24T13:05:01;12.10;99.90
28189;DHT22;15471;51.166;4.470;2023-04-24T13:07:28;11.70;99.90
28189;DHT22;15471;51.166;4.470;2023-04-24T13:09:55;11.80;99.90
28189;DHT22;15471;51.166;4.470;2023-04-24T13:12:21;11.70;99.90
28189;DHT22;15471;51.166;4.470;2023-04-24T13:14:49;11.90;99.90
28189;DHT22;15471;51.166;4.470;2023-04-24T13:17:16;12.40;99.90
28189;DHT22;15471;51.166;4.470;2023-04-24T13:19:43;12.70;99.90
28189;DHT22;15471;51.166;4.470;2023-04-24T13:22:10;13.00;99.90
28189;DHT22;15471;51.166;4.470;2023-04-24T13:24:37;13.00;99.90
28189;DHT22;15471;51.166;4.470;2023-04-24T13:27:04;13.00;99.90
28189;DHT22;15471;51.166;4.470;2023-04-24T13:29:30;12.90;99.90
28189;DHT22;15471;51.166;4.470;2023-04-24T13:31:56;12.70;99.90
28189;DHT22;15471;51.166;4.470;2023-04-24T13:34:23;12.80;99.90
28189;DHT22;15471;51.166;4.470;2023-04-24T13:36:53;12.90;99.90
28189;DHT22;15471;51.166;4.470;2023-04-24T13:39:19;12.40;99.90
28189;DHT22;15471;51.166;4.470;2023-04-24T13:41:46;12.00;99.90
28189;DHT22;15471;51.166;4.470;2023-04-24T13:44:19;12.10;99.90
28189;DHT22;15471;51.166;4.470;2023-04-24T13:46:51;12.10;99.90
28189;DHT22;15471;51.166;4.470;2023-04-24T13:49:20;12.20;99.90
28189;DHT22;15471;51.166;4.470;2023-04-24T13:51:46;12.50;99.90
28189;DHT22;15471;51.166;4.470;2023-04-24T13:54:13;12.30;99.90
28189;DHT22;15471;51.166;4.470;2023-04-24T13:56:40;12.00;99.90
28189;DHT22;15471;51.166;4.470;2023-04-24T13:59:06;11.80;99.90
28189;DHT22;15471;51.166;4.470;2023-04-24T14:02:09;11.90;99.90
28189;DHT22;15471;51.166;4.470;2023-04-24T14:04:56;12.10;99.90
28189;DHT22;15471;51.166;4.470;2023-04-24T14:07:22;12.10;99.90
28189;DHT22;15471;51.166;4.470;2023-04-24T14:09:48;12.20;99.90
28189;DHT22;15471;51.166;4.470;2023-04-24T14:12:16;12.30;99.90
28189;DHT22;15471;51.166;4.470;2023-04-24T14:14:46;12.30;99.90
28189;DHT22;15471;51.166;4.470;2023-04-24T14:17:12;12.30;99.90
28189;DHT22;15471;51.166;4.470;2023-04-24T14:19:39;12.60;99.90
28189;DHT22;15471;51.166;4.470;2023-04-24T14:22:05;12.90;99.90
28189;DHT22;15471;51.166;4.470;2023-04-24T14:24:31;13.30;99.90
28189;DHT22;15471;51.166;4.470;2023-04-24T14:26:57;13.30;99.90
28189;DHT22;15471;51.166;4.470;2023-04-24T14:29:34;12.80;99.90
28189;DHT22;15471;51.166;4.470;2023-04-24T14:32:01;12.30;99.90
28189;DHT22;15471;51.166;4.470;2023-04-24T14:34:29;12.00;99.90
28189;DHT22;15471;51.166;4.470;2023-04-24T14:37:01;11.80;99.90
28189;DHT22;15471;51.166;4.470;2023-04-24T14:39:30;11.70;99.90
28189;DHT22;15471;51.166;4.470;2023-04-24T14:41:56;11.90;99.90
28189;DHT22;15471;51.166;4.470;2023-04-24T14:44:23;12.30;99.90
28189;DHT22;15471;51.166;4.470;2023-04-24T14:46:52;12.70;99.90
28189;DHT22;15471;51.166;4.470;2023-04-24T14:49:20;12.70;99.90
28189;DHT22;15471;51.166;4.470;2023-04-24T14:51:55;12.70;99.90
28189;DHT22;15471;51.166;4.470;2023-04-24T14:54:22;12.70;99.90
28189;DHT22;15471;51.166;4.470;2023-04-24T14:56:49;12.70;99.90
28189;DHT22;15471;51.166;4.470;2023-04-24T14:59:20;12.50;99.90
28189;DHT22;15471;51.166;4.470;2023-04-24T15:01:54;12.30;99.90
28189;DHT22;15471;51.166;4.470;2023-04-24T15:04:27;12.30;99.90
28189;DHT22;15471;51.166;4.470;2023-04-24T15:06:54;12.40;99.90
28189;DHT22;15471;51.166;4.470;2023-04-24T15:09:24;12.20;99.90
28189;DHT22;15471;51.166;4.470;2023-04-24T15:11:51;12.00;99.90
28189;DHT22;15471;51.166;4.470;2023-04-24T15:14:18;11.90;99.90
28189;DHT22;15471;51.166;4.470;2023-04-24T15:16:44;11.90;99.90
28189;DHT22;15471;51.166;4.470;2023-04-24T15:19:11;11.70;99.90
28189;DHT22;15471;51.166;4.470;2023-04-24T15:21:37;11.70;99.90
28189;DHT22;15471;51.166;4.470;2023-04-24T15:24:06;12.00;99.90
28189;DHT22;15471;51.166;4.470;2023-04-24T15:26:32;12.30;99.90
28189;DHT22;15471;51.166;4.470;2023-04-24T15:28:58;12.60;99.90
28189;DHT22;15471;51.166;4.470;2023-04-24T15:31:25;12.70;99.90
28189;DHT22;15471;51.166;4.470;2023-04-24T15:33:51;12.70;99.90
28189;DHT22;15471;51.166;4.470;2023-04-24T15:36:18;12.70;99.90
28189;DHT22;15471;51.166;4.470;2023-04-24T15:38:44;12.50;99.90
28189;DHT22;15471;51.166;4.470;2023-04-24T15:41:11;12.30;99.90
28189;DHT22;15471;51.166;4.470;2023-04-24T15:43:37;12.30;99.90
28189;DHT22;15471;51.166;4.470;2023-04-24T15:46:04;12.30;99.90
28189;DHT22;15471;51.166;4.470;2023-04-24T15:48:31;12.10;99.90
28189;DHT22;15471;51.166;4.470;2023-04-24T15:50:57;12.20;99.90
28189;DHT22;15471;51.166;4.470;2023-04-24T15:53:27;12.40;99.90
28189;DHT22;15471;51.166;4.470;2023-04-24T15:55:54;12.50;99.90
28189;DHT22;15471;51.166;4.470;2023-04-24T15:58:23;12.40;99.90
28189;DHT22;15471;51.166;4.470;2023-04-24T16:00:53;12.70;99.90
28189;DHT22;15471;51.166;4.470;2023-04-24T16:03:23;12.40;99.90
28189;DHT22;15471;51.166;4.470;2023-04-24T16:05:49;12.30;99.90
28189;DHT22;15471;51.166;4.470;2023-04-24T16:08:16;12.50;99.90
28189;DHT22;15471;51.166;4.470;2023-04-24T16:10:42;12.70;99.90
28189;DHT22;15471;51.166;4.470;2023-04-24T16:16:54;13.00;99.90
28189;DHT22;15471;51.166;4.470;2023-04-24T16:19:21;14.20;99.90
28189;DHT22;15471;51.166;4.470;2023-04-24T16:21:50;13.70;99.90
28189;DHT22;15471;51.166;4.470;2023-04-24T16:24:22;13.10;99.90
28189;DHT22;15471;51.166;4.470;2023-04-24T16:26:50;12.20;99.90
28189;DHT22;15471;51.166;4.470;2023-04-24T16:29:18;12.10;99.90
28189;DHT22;15471;51.166;4.470;2023-04-24T16:31:44;11.60;99.90
28189;DHT22;15471;51.166;4.470;2023-04-24T16:34:19;11.20;99.90
28189;DHT22;15471;51.166;4.470;2023-04-24T16:36:46;10.90;99.90
28189;DHT22;15471;51.166;4.470;2023-04-24T16:39:18;11.10;99.90
28189;DHT22;15471;51.166;4.470;2023-04-24T16:41:46;11.10;99.90
28189;DHT22;15471;51.166;4.470;2023-04-24T16:44:14;11.20;99.90
28189;DHT22;15471;51.166;4.470;2023-04-24T16:46:44;11.30;99.90
28189;DHT22;15471;51.166;4.470;2023-04-24T16:49:13;11.50;99.90
28189;DHT22;15471;51.166;4.470;2023-04-24T16:51:40;12.60;99.90
28189;DHT22;15471;51.166;4.470;2023-04-24T16:54:07;14.20;99.90
28189;DHT22;15471;51.166;4.470;2023-04-24T16:56:33;14.40;99.90
28189;DHT22;15471;51.166;4.470;2023-04-24T16:59:00;15.30;99.90
28189;DHT22;15471;51.166;4.470;2023-04-24T17:01:26;15.70;99.90
28189;DHT22;15471;51.166;4.470;2023-04-24T17:03:52;15.20;99.90
28189;DHT22;15471;51.166;4.470;2023-04-24T17:06:19;13.90;99.90
28189;DHT22;15471;51.166;4.470;2023-04-24T17:08:45;13.10;99.90
28189;DHT22;15471;51.166;4.470;2023-04-24T17:11:13;13.50;99.90
28189;DHT22;15471;51.166;4.470;2023-04-24T17:13:39;13.20;99.90
28189;DHT22;15471;51.166;4.470;2023-04-24T17:16:05;12.10;99.90
28189;DHT22;15471;51.166;4.470;2023-04-24T17:18:31;11.30;99.90
28189;DHT22;15471;51.166;4.470;2023-04-24T17:20:58;10.90;99.90
28189;DHT22;15471;51.166;4.470;2023-04-24T17:23:24;10.70;99.90
28189;DHT22;15471;51.166;4.470;2023-04-24T17:25:50;10.60;99.90
28189;DHT22;15471;51.166;4.470;2023-04-24T17:28:26;10.50;99.90
28189;DHT22;15471;51.166;4.470;2023-04-24T17:30:53;10.50;99.90
28189;DHT22;15471;51.166;4.470;2023-04-24T17:33:24;10.50;99.90
28189;DHT22;15471;51.166;4.470;2023-04-24T17:35:51;10.40;99.90
28189;DHT22;15471;51.166;4.470;2023-04-24T17:38:20;10.30;99.90
28189;DHT22;15471;51.166;4.470;2023-04-24T17:40:48;10.30;99.90
28189;DHT22;15471;51.166;4.470;2023-04-24T17:43:20;10.40;99.90
28189;DHT22;15471;51.166;4.470;2023-04-24T17:45:54;10.50;99.90
28189;DHT22;15471;51.166;4.470;2023-04-24T17:48:21;10.60;99.90
28189;DHT22;15471;51.166;4.470;2023-04-24T17:50:48;10.50;99.90
28189;DHT22;15471;51.166;4.470;2023-04-24T17:53:14;10.50;99.90
28189;DHT22;15471;51.166;4.470;2023-04-24T17:55:41;10.40;99.90
28189;DHT22;15471;51.166;4.470;2023-04-24T17:58:11;10.20;99.90
28189;DHT22;15471;51.166;4.470;2023-04-24T18:00:38;10.10;99.90
28189;DHT22;15471;51.166;4.470;2023-04-24T18:03:06;10.10;99.90
28189;DHT22;15471;51.166;4.470;2023-04-24T18:05:34;10.20;99.90
28189;DHT22;15471;51.166;4.470;2023-04-24T18:08:01;10.10;99.90
28189;DHT22;15471;51.166;4.470;2023-04-24T18:10:29;10.10;99.90
28189;DHT22;15471;51.166;4.470;2023-04-24T18:12:57;9.90;99.90
28189;DHT22;15471;51.166;4.470;2023-04-24T18:15:23;9.90;99.90
28189;DHT22;15471;51.166;4.470;2023-04-24T18:17:50;9.80;99.90
28189;DHT22;15471;51.166;4.470;2023-04-24T18:20:17;9.70;99.90
28189;DHT22;15471;51.166;4.470;2023-04-24T18:22:45;9.60;99.90
28189;DHT22;15471;51.166;4.470;2023-04-24T18:25:12;9.50;99.90
28189;DHT22;15471;51.166;4.470;2023-04-24T18:27:39;9.40;99.90
28189;DHT22;15471;51.166;4.470;2023-04-24T18:30:07;9.50;99.90
28189;DHT22;15471;51.166;4.470;2023-04-24T18:32:34;9.50;99.90
28189;DHT22;15471;51.166;4.470;2023-04-24T18:35:01;9.60;99.90
28189;DHT22;15471;51.166;4.470;2023-04-24T18:37:28;9.50;99.90
28189;DHT22;15471;51.166;4.470;2023-04-24T18:39:54;9.50;99.90
28189;DHT22;15471;51.166;4.470;2023-04-24T18:42:21;9.40;99.90
28189;DHT22;15471;51.166;4.470;2023-04-24T18:44:47;9.30;99.90
28189;DHT22;15471;51.166;4.470;2023-04-24T18:47:23;9.30;99.90